Hooper, Washington
Current Conditions -  °F | °C
As of 4:41 PM on Tuesday 25 Nov 2014 (Local Time) from KALW Reporting Station
Haze Haze  
Wind Chill: 39°   Ceiling: 200
Heat Index: 44°   Visibility: 0.75mi
Dew Point: 43°   Wind: 9mph
Humidity: 96%   Direction: 200°SSW
Pressure: 30.19"   Gusts: NA
Location:  46.75°N, 118.15°W
Report Text: KALW 260041Z 20008KT 3/4SM R20/2000VP6000FT BR VV002 07/06 A3019 RMK AO2 T00670061
Loading
Personal Weather Stations






























Interactive Weather Map New forecast layout! Learn more

10-Day Weather Forecast

Advertisements
Track Severe Weather on mobile